Time;durP1;ratioP1;P1;durP2;ratioP2;P2;SDS_P1;SDS_P2;PMS_P1;PMS_P2;Temp;Humidity;BMP_temperature;BMP_pressure;BME280_temperature;BME280_humidity;BME280_pressure;Samples;Min_cycle;Max_cycle;Signal;HPM_P1;HPM_P2
2022/12/13 00:00:40;;;;;;;;;;;;;;;;;;5078949;28;19913;-52
2022/12/13 00:03:05;;;;;;;;;;;;;;;;;;5090391;28;19908;-52
2022/12/13 00:05:31;;;;;;;;;;;;;;;;;;5091806;28;19935;-52
2022/12/13 00:07:57;;;;;;;;;;;;;;;;;;5085359;28;20265;-53
2022/12/13 00:10:23;;;;;;;;;;;;;;;;;;5091862;28;19999;-53
2022/12/13 00:12:49;;;;;;;;;;;;;;;;;;5091505;28;20019;-53
2022/12/13 00:15:15;;;;;;;;;;;;;;;;;;5081150;28;19912;-52
2022/12/13 00:17:41;;;;;;;;;;;;;;;;;;5084506;28;19913;-53
2022/12/13 00:20:07;;;;;;;;;;;;;;;;;;5075447;28;19912;-52
2022/12/13 00:22:33;;;;;;;;;;;;;;;;;;5074169;28;20392;-53
2022/12/13 00:24:59;;;;;;;;;;;;;;;;;;5082073;28;19919;-52
2022/12/13 00:27:25;;;;;;;;;;;;;;;;;;5093319;28;19912;-51
2022/12/13 00:29:51;;;;;;;;;;;;;;;;;;5078151;28;19916;-52
2022/12/13 00:32:17;;;;;;;;;;;;;;;;;;5091788;28;20262;-53
2022/12/13 00:34:43;;;;;;;;;;;;;;;;;;5095320;28;19916;-51
2022/12/13 00:37:08;;;;;;;;;;;;;;;;;;5090804;28;19916;-51
2022/12/13 00:39:34;;;;;;;;;;;;;;;;;;5080413;28;19912;-53
2022/12/13 00:42:00;;;;;;;;;;;;;;;;;;5093675;28;19920;-53
2022/12/13 00:44:26;;;;;;;;;;;;;;;;;;5075400;28;20369;-53
2022/12/13 00:46:52;;;;;;;;;;;;;;;;;;5088218;28;19912;-53
2022/12/13 00:49:18;;;;;;;;;;;;;;;;;;5095033;28;20368;-53
2022/12/13 00:51:44;;;;;;;;;;;;;;;;;;5094899;28;19948;-51
2022/12/13 00:54:10;;;;;;;;;;;;;;;;;;5093398;28;19959;-54
2022/12/13 00:56:36;;;;;;;;;;;;;;;;;;5089108;28;20010;-54
2022/12/13 00:59:02;;;;;;;;;;;;;;;;;;5074899;28;20299;-53
2022/12/13 01:01:28;;;;;;;;;;;;;;;;;;5086472;28;20347;-52
2022/12/13 01:03:54;;;;;;;;;;;;;;;;;;5093276;28;19916;-53
2022/12/13 01:06:20;;;;;;;;;;;;;;;;;;5090714;28;19935;-52
2022/12/13 01:08:46;;;;;;;;;;;;;;;;;;5090912;28;19912;-55
2022/12/13 01:11:12;;;;;;;;;;;;;;;;;;5085935;28;19912;-52
2022/12/13 01:13:38;;;;;;;;;;;;;;;;;;5074356;28;19918;-53
2022/12/13 01:16:04;;;;;;;;;;;;;;;;;;5083610;28;19913;-53
2022/12/13 01:18:29;;;;;;;;;;;;;;;;;;5085452;28;19919;-51
2022/12/13 01:20:56;;;;;;;;;;;;;;;;;;5092814;28;20308;-51
2022/12/13 01:23:22;;;;;;;;;;;;;;;;;;5093141;28;20285;-53
2022/12/13 01:25:48;;;;;;;;;;;;;;;;;;5091528;28;19923;-52
2022/12/13 01:28:14;;;;;;;;;;;;;;;;;;5093569;28;19916;-52
2022/12/13 01:30:40;;;;;;;;;;;;;;;;;;5089043;28;19925;-51
2022/12/13 01:33:06;;;;;;;;;;;;;;;;;;5090854;28;19924;-55
2022/12/13 01:35:32;;;;;;;;;;;;;;;;;;5093042;28;19916;-53
2022/12/13 01:37:58;;;;;;;;;;;;;;;;;;5093913;28;19908;-56
2022/12/13 01:40:23;;;;;;;;;;;;;;;;;;5082058;28;19981;-52
2022/12/13 01:42:49;;;;;;;;;;;;;;;;;;5088036;28;20380;-54
2022/12/13 01:45:15;;;;;;;;;;;;;;;;;;5092080;28;19916;-54
2022/12/13 01:47:41;;;;;;;;;;;;;;;;;;5074320;28;19912;-53
2022/12/13 01:50:07;;;;;;;;;;;;;;;;;;5073535;28;19909;-52
2022/12/13 01:52:33;;;;;;;;;;;;;;;;;;5081348;28;20430;-52
2022/12/13 01:54:59;;;;;;;;;;;;;;;;;;5080349;28;20011;-56
2022/12/13 01:57:25;;;;;;;;;;;;;;;;;;5076716;28;20307;-55
2022/12/13 01:59:51;;;;;;;;;;;;;;;;;;5092132;28;19908;-54
2022/12/13 02:02:17;;;;;;;;;;;;;;;;;;5084595;28;19958;-51
2022/12/13 02:04:43;;;;;;;;;;;;;;;;;;5081565;28;19909;-54
2022/12/13 02:07:09;;;;;;;;;;;;;;;;;;5074191;28;19923;-57
2022/12/13 02:09:35;;;;;;;;;;;;;;;;;;5093366;28;20313;-53
2022/12/13 02:12:00;;;;;;;;;;;;;;;;;;5091304;28;20003;-54
2022/12/13 02:14:26;;;;;;;;;;;;;;;;;;5091285;28;19923;-54
2022/12/13 02:16:52;;;;;;;;;;;;;;;;;;5087883;28;20011;-52
2022/12/13 02:19:25;;;;;;;;;;;2.90;92.70;;;;;;5093361;28;20342;-55
2022/12/13 02:22:09;;;;;;;;;;;2.30;96.00;;;;;;5089805;28;19912;-54
2022/12/13 02:24:34;;;;;;;;;;;2.30;96.00;;;;;;5092988;28;20014;-54
2022/12/13 02:27:00;;;;;;;;;;;;;;;;;;5073273;28;20439;-54
2022/12/13 02:29:29;;;;;;;;;;;2.20;96.00;;;;;;5072857;28;20388;-52
2022/12/13 02:32:03;;;;;;;;;;;2.20;96.40;;;;;;5082348;28;19912;-55
2022/12/13 02:34:40;;;;;;;;;;;2.20;96.40;;;;;;5072751;28;20316;-52
2022/12/13 02:37:14;;;;;;;;;;;2.20;96.50;;;;;;5073925;28;20410;-54
2022/12/13 02:39:46;;;;;;;;;;;2.20;96.60;;;;;;5074857;28;19931;-53
2022/12/13 02:42:16;;;;;;;;;;;2.20;96.60;;;;;;5083525;28;19922;-54
2022/12/13 02:44:44;;;;;;;;;;;2.30;96.70;;;;;;5072834;28;19912;-55
2022/12/13 02:47:16;;;;;;;;;;;2.40;96.40;;;;;;5089816;28;19912;-51
2022/12/13 02:49:45;;;;;;;;;;;2.30;96.20;;;;;;5091607;28;19908;-53
2022/12/13 02:52:12;;;;;;;;;;;2.30;96.40;;;;;;5073939;28;19966;-51
2022/12/13 02:54:38;;;;;;;;;;;2.30;96.50;;;;;;5072464;28;19924;-54
2022/12/13 02:57:03;;;;;;;;;;;2.20;96.50;;;;;;5072376;28;19912;-51
2022/12/13 02:59:38;;;;;;;;;;;2.20;96.70;;;;;;5088881;28;19919;-51
2022/12/13 03:02:09;;;;;;;;;;;2.20;96.50;;;;;;5081462;28;19976;-54
2022/12/13 03:08:05;;;;;;;;;;;2.30;96.60;;;;;;5059994;28;20392;-57
2022/12/13 03:10:42;;;;;;;;;;;2.30;96.50;;;;;;5071608;28;19912;-53
2022/12/13 03:15:58;;;;;;;;;;;2.30;96.30;;;;;;5086877;28;19919;-51
2022/12/13 03:18:25;;;;;;;;;;;2.40;96.20;;;;;;5071939;28;19951;-53
2022/12/13 03:20:54;;;;;;;;;;;2.40;96.30;;;;;;5072223;28;19975;-52
2022/12/13 03:23:20;;;;;;;;;;;2.40;96.30;;;;;;5072081;28;19916;-52
2022/12/13 03:25:48;;;;;;;;;;;2.50;96.20;;;;;;5072219;28;19965;-53
2022/12/13 03:28:14;;;;;;;;;;;2.50;96.20;;;;;;5071918;28;19919;-54
2022/12/13 03:30:39;;;;;;;;;;;2.50;96.10;;;;;;5073201;28;20284;-53
2022/12/13 03:33:05;;;;;;;;;;;2.50;96.20;;;;;;5082956;28;19917;-55
2022/12/13 03:35:31;;;;;;;;;;;2.50;96.00;;;;;;5072116;28;19908;-54
2022/12/13 03:37:56;;;;;;;;;;;2.50;96.10;;;;;;5087269;28;19912;-55
2022/12/13 03:40:22;;;;;;;;;;;2.50;96.10;;;;;;5092111;28;19995;-52
2022/12/13 03:42:48;;;;;;;;;;;2.40;96.20;;;;;;5092228;28;19916;-55
2022/12/13 03:45:13;;;;;;;;;;;2.40;96.20;;;;;;5092159;28;19912;-51
2022/12/13 03:47:39;;;;;;;;;;;2.40;96.30;;;;;;5091957;28;20279;-52
2022/12/13 03:50:05;;;;;;;;;;;2.40;96.40;;;;;;5078792;28;19962;-54
2022/12/13 03:52:31;;;;;;;;;;;;;;;;;;5088678;28;19913;-51
2022/12/13 03:54:57;;;;;;;;;;;;;;;;;;5089243;28;19923;-54
2022/12/13 03:57:22;;;;;;;;;;;;;;;;;;5076021;28;19909;-54
2022/12/13 03:59:48;;;;;;;;;;;;;;;;;;5075705;28;19921;-52
2022/12/13 04:02:14;;;;;;;;;;;;;;;;;;5079142;28;19916;-55
2022/12/13 04:04:40;;;;;;;;;;;;;;;;;;5079405;28;19913;-56
2022/12/13 04:07:06;;;;;;;;;;;;;;;;;;5075772;28;20365;-54
2022/12/13 04:09:32;;;;;;;;;;;2.30;96.40;;;;;;5086808;28;19912;-51
2022/12/13 04:14:41;;;;;;;;;;;2.10;96.80;;;;;;5095800;28;19970;-54
2022/12/13 04:17:07;;;;;;;;;;;2.10;97.10;;;;;;5085431;28;19963;-55
2022/12/13 04:19:33;;;;;;;;;;;2.10;97.20;;;;;;5095582;28;19908;-54
2022/12/13 04:21:58;;;;;;;;;;;2.20;97.00;;;;;;5095828;28;19934;-55
2022/12/13 04:24:24;;;;;;;;;;;2.30;96.80;;;;;;5076548;28;19919;-56
2022/12/13 04:26:50;;;;;;;;;;;2.20;96.90;;;;;;5075343;28;19987;-58
2022/12/13 04:29:16;;;;;;;;;;;2.20;96.70;;;;;;5073854;28;20002;-54
2022/12/13 04:31:41;;;;;;;;;;;2.10;96.80;;;;;;5087446;28;19920;-53
2022/12/13 04:34:07;;;;;;;;;;;2.10;97.10;;;;;;5079666;28;19928;-53
2022/12/13 04:36:33;;;;;;;;;;;2.10;97.20;;;;;;5083147;28;20388;-53
2022/12/13 04:38:59;;;;;;;;;;;2.10;97.20;;;;;;5083254;28;19916;-52
2022/12/13 04:41:25;;;;;;;;;;;2.10;97.30;;;;;;5095880;28;19909;-55
2022/12/13 04:43:51;;;;;;;;;;;2.20;97.00;;;;;;5094559;28;19919;-55
2022/12/13 04:46:18;;;;;;;;;;;2.20;96.80;;;;;;5084781;28;19990;-56
2022/12/13 04:48:43;;;;;;;;;;;2.10;97.20;;;;;;5076283;28;20205;-52
2022/12/13 04:51:09;;;;;;;;;;;2.00;97.50;;;;;;5091573;28;20346;-54
2022/12/13 04:53:34;;;;;;;;;;;2.10;97.60;;;;;;5095015;28;19912;-52
2022/12/13 04:56:01;;;;;;;;;;;2.10;97.50;;;;;;5095427;28;19959;-52
2022/12/13 04:58:27;;;;;;;;;;;2.10;97.50;;;;;;5093568;28;19976;-52
2022/12/13 05:00:53;;;;;;;;;;;2.10;97.40;;;;;;5094552;28;20365;-51
2022/12/13 05:03:18;;;;;;;;;;;2.20;97.50;;;;;;5093702;28;20292;-58
2022/12/13 05:05:44;;;;;;;;;;;2.20;97.40;;;;;;5094985;28;19908;-53
2022/12/13 05:08:09;;;;;;;;;;;2.30;97.10;;;;;;5094776;28;19908;-51
2022/12/13 05:10:36;;;;;;;;;;;2.20;97.20;;;;;;5094828;28;19915;-54
2022/12/13 05:13:02;;;;;;;;;;;2.20;97.30;;;;;;5094628;28;19916;-54
2022/12/13 05:15:29;;;;;;;;;;;2.20;97.10;;;;;;5093485;28;19912;-56
2022/12/13 05:17:55;;;;;;;;;;;2.20;97.20;;;;;;5094749;28;19912;-55
2022/12/13 05:20:21;;;;;;;;;;;2.20;97.40;;;;;;5094494;28;19908;-54
2022/12/13 05:22:46;;;;;;;;;;;2.20;97.40;;;;;;5093412;28;19915;-51
2022/12/13 05:25:12;;;;;;;;;;;2.20;97.70;;;;;;5094479;28;19916;-51
2022/12/13 05:27:37;;;;;;;;;;;2.20;97.50;;;;;;5093014;28;19955;-52
2022/12/13 05:30:03;;;;;;;;;;;2.30;97.30;;;;;;5094441;28;19962;-52
2022/12/13 05:32:30;;;;;;;;;;;2.30;97.30;;;;;;5094424;28;20015;-54
2022/12/13 05:34:55;;;;;;;;;;;2.30;97.40;;;;;;5094549;28;19919;-53
2022/12/13 05:37:21;;;;;;;;;;;2.30;97.60;;;;;;5094511;28;19908;-51
2022/12/13 05:39:46;;;;;;;;;;;2.30;97.10;;;;;;5092929;28;19916;-55
2022/12/13 05:42:12;;;;;;;;;;;2.30;97.30;;;;;;5094373;28;19908;-52
2022/12/13 05:44:37;;;;;;;;;;;2.30;97.30;;;;;;5094301;28;19915;-53
2022/12/13 05:47:03;;;;;;;;;;;2.30;97.20;;;;;;5094505;28;19908;-53
2022/12/13 05:49:29;;;;;;;;;;;2.30;97.20;;;;;;5093983;28;19954;-51
2022/12/13 05:51:54;;;;;;;;;;;2.30;97.10;;;;;;5094176;28;19953;-53
2022/12/13 05:54:20;;;;;;;;;;;2.30;97.20;;;;;;5094015;28;19915;-52
2022/12/13 05:56:45;;;;;;;;;;;2.30;97.20;;;;;;5094010;28;19999;-54
2022/12/13 05:59:11;;;;;;;;;;;2.30;97.20;;;;;;5093834;28;19914;-54
2022/12/13 06:01:36;;;;;;;;;;;2.30;97.20;;;;;;5093970;28;19999;-51
2022/12/13 06:04:02;;;;;;;;;;;2.30;97.20;;;;;;5093881;28;20000;-52
2022/12/13 06:06:27;;;;;;;;;;;2.20;97.30;;;;;;5093805;28;19908;-51
2022/12/13 06:08:53;;;;;;;;;;;2.30;97.40;;;;;;5092536;28;19916;-51
2022/12/13 06:11:18;;;;;;;;;;;2.20;97.50;;;;;;5093798;28;19969;-53
2022/12/13 06:13:49;;;;;;;;;;;2.30;97.50;;;;;;5088241;28;20387;-57
2022/12/13 06:16:14;;;;;;;;;;;2.30;97.30;;;;;;5075562;28;19913;-51
2022/12/13 06:18:40;;;;;;;;;;;2.30;97.30;;;;;;5072898;28;20003;-52
2022/12/13 06:21:06;;;;;;;;;;;2.30;97.60;;;;;;5073352;28;19981;-54
2022/12/13 06:23:32;;;;;;;;;;;2.30;97.40;;;;;;5073299;28;19928;-52
2022/12/13 06:25:57;;;;;;;;;;;2.30;97.40;;;;;;5073156;28;19915;-55
2022/12/13 06:28:23;;;;;;;;;;;2.30;97.40;;;;;;5073217;28;20289;-52
2022/12/13 06:30:51;;;;;;;;;;;2.30;97.90;;;;;;5073139;28;19945;-52
2022/12/13 06:33:19;;;;;;;;;;;2.30;97.80;;;;;;5072966;28;19916;-52
2022/12/13 06:35:45;;;;;;;;;;;2.40;97.60;;;;;;5073047;28;19908;-50
2022/12/13 06:38:12;;;;;;;;;;;2.50;97.50;;;;;;5071345;28;19930;-49
2022/12/13 06:40:38;;;;;;;;;;;2.50;97.50;;;;;;5072951;28;19913;-51
2022/12/13 06:43:03;;;;;;;;;;;2.50;97.40;;;;;;5072924;28;20009;-51
2022/12/13 06:45:29;;;;;;;;;;;2.60;97.30;;;;;;5072878;28;19948;-50
2022/12/13 06:47:55;;;;;;;;;;;2.60;97.30;;;;;;5084182;28;19912;-50
2022/12/13 06:50:21;;;;;;;;;;;2.50;97.10;;;;;;5092941;28;19908;-56
2022/12/13 06:52:47;;;;;;;;;;;2.60;97.20;;;;;;5092935;28;20357;-50
2022/12/13 06:55:12;;;;;;;;;;;2.60;97.00;;;;;;5092832;28;19912;-49
2022/12/13 06:57:38;;;;;;;;;;;2.60;97.20;;;;;;5092850;28;19919;-50
2022/12/13 07:00:04;;;;;;;;;;;2.60;96.90;;;;;;5092727;28;19914;-50
2022/12/13 07:02:29;;;;;;;;;;;2.60;96.80;;;;;;5092848;28;20273;-51
2022/12/13 07:04:55;;;;;;;;;;;2.50;96.90;;;;;;5091554;28;20318;-52
2022/12/13 07:07:21;;;;;;;;;;;2.40;97.10;;;;;;5092659;28;20293;-52
2022/12/13 07:09:47;;;;;;;;;;;2.30;97.30;;;;;;5091235;28;19940;-56
2022/12/13 07:12:13;;;;;;;;;;;2.30;97.30;;;;;;5092747;28;20330;-53
2022/12/13 07:14:38;;;;;;;;;;;2.30;97.50;;;;;;5092576;28;20384;-52
2022/12/13 07:17:04;;;;;;;;;;;2.40;97.50;;;;;;5092375;28;19935;-51
2022/12/13 07:19:30;;;;;;;;;;;2.40;97.30;;;;;;5091095;28;20307;-52
2022/12/13 07:21:55;;;;;;;;;;;2.50;97.20;;;;;;5092495;28;20291;-52
2022/12/13 07:24:21;;;;;;;;;;;2.50;97.20;;;;;;5092065;28;20003;-50
2022/12/13 07:26:47;;;;;;;;;;;2.50;97.00;;;;;;5092652;28;19944;-54
2022/12/13 07:29:12;;;;;;;;;;;2.50;97.00;;;;;;5092273;28;19927;-51
2022/12/13 07:31:38;;;;;;;;;;;2.60;96.70;;;;;;5092069;28;19962;-52
2022/12/13 07:34:03;;;;;;;;;;;2.60;96.70;;;;;;5086374;28;19920;-51
2022/12/13 07:36:31;;;;;;;;;;;2.60;96.50;;;;;;5091538;28;20295;-53
2022/12/13 07:38:57;;;;;;;;;;;2.60;96.80;;;;;;5092154;28;19908;-52
2022/12/13 07:41:23;;;;;;;;;;;2.60;96.80;;;;;;5091096;28;19908;-51
2022/12/13 07:43:49;;;;;;;;;;;2.60;96.80;;;;;;5091080;28;19912;-53
2022/12/13 07:46:14;;;;;;;;;;;2.70;96.80;;;;;;5092362;28;20565;-56
2022/12/13 07:48:40;;;;;;;;;;;2.70;96.80;;;;;;5084156;22;19929;-50
2022/12/13 07:51:07;;;;;;;;;;;2.70;97.00;;;;;;5051832;28;19952;-51
2022/12/13 07:53:33;;;;;;;;;;;2.70;97.10;;;;;;5051395;28;19966;-51
2022/12/13 07:56:06;;;;;;;;;;;2.70;97.10;;;;;;5052040;28;19909;-52
2022/12/13 07:58:34;;;;;;;;;;;2.70;97.00;;;;;;5051716;28;20395;-51
2022/12/13 08:01:03;;;;;;;;;;;2.60;97.00;;;;;;5045215;28;19935;-52
2022/12/13 08:03:28;;;;;;;;;;;2.60;97.00;;;;;;5036172;28;19909;-50
2022/12/13 08:05:57;;;;;;;;;;;2.60;97.10;;;;;;5040735;28;19920;-50
2022/12/13 08:08:23;;;;;;;;;;;2.60;97.10;;;;;;5041106;28;20434;-50
2022/12/13 08:10:48;;;;;;;;;;;2.60;97.20;;;;;;5052014;28;19999;-49
2022/12/13 08:13:14;;;;;;;;;;;2.50;97.40;;;;;;5051815;28;19963;-51
2022/12/13 08:15:39;;;;;;;;;;;2.60;97.40;;;;;;5051805;28;20376;-51
2022/12/13 08:18:05;;;;;;;;;;;2.60;97.40;;;;;;5051692;28;19909;-50
2022/12/13 08:20:31;;;;;;;;;;;2.60;97.30;;;;;;5050419;28;19916;-52
2022/12/13 08:22:57;;;;;;;;;;;2.60;97.10;;;;;;5051838;28;19944;-49
2022/12/13 08:25:23;;;;;;;;;;;2.60;97.20;;;;;;5050479;28;19974;-50
2022/12/13 08:27:48;;;;;;;;;;;2.50;97.30;;;;;;5051647;28;20365;-49
2022/12/13 08:30:14;;;;;;;;;;;2.50;97.80;;;;;;5051533;28;20364;-52
2022/12/13 08:32:39;;;;;;;;;;;2.50;97.50;;;;;;5051704;28;20012;-49
2022/12/13 08:35:05;;;;;;;;;;;2.60;97.40;;;;;;5051519;28;19956;-49
2022/12/13 08:37:31;;;;;;;;;;;2.60;97.30;;;;;;5053779;28;19912;-50
2022/12/13 08:39:56;;;;;;;;;;;2.60;97.40;;;;;;5055168;28;20384;-50
2022/12/13 08:42:24;;;;;;;;;;;2.70;97.30;;;;;;5055275;28;19913;-52
2022/12/13 08:44:50;;;;;;;;;;;2.70;97.30;;;;;;5055326;28;19952;-49
2022/12/13 08:47:16;;;;;;;;;;;2.70;97.40;;;;;;5055072;28;19909;-49
2022/12/13 08:49:41;;;;;;;;;;;2.80;97.30;;;;;;5054831;28;19921;-50
2022/12/13 08:52:07;;;;;;;;;;;2.90;97.20;;;;;;5055070;28;19955;-49
2022/12/13 08:54:33;;;;;;;;;;;2.90;96.90;;;;;;5042801;28;19921;-50
2022/12/13 08:56:58;;;;;;;;;;;2.90;96.90;;;;;;5035085;28;20258;-49
2022/12/13 08:59:24;;;;;;;;;;;3.00;97.00;;;;;;5034954;28;19919;-50
2022/12/13 09:01:50;;;;;;;;;;;3.00;96.90;;;;;;5034942;28;19913;-49
2022/12/13 09:04:16;;;;;;;;;;;2.90;97.00;;;;;;5034929;28;19909;-49
2022/12/13 09:06:42;;;;;;;;;;;2.90;97.00;;;;;;5034848;28;19917;-49
2022/12/13 09:09:08;;;;;;;;;;;2.90;97.20;;;;;;5034687;28;20358;-49
2022/12/13 09:11:33;;;;;;;;;;;2.80;97.20;;;;;;5033430;28;19913;-50
2022/12/13 09:13:59;;;;;;;;;;;2.80;97.40;;;;;;5034712;28;20377;-49
2022/12/13 09:16:25;;;;;;;;;;;2.90;97.50;;;;;;5034546;28;19910;-50
2022/12/13 09:18:53;;;;;;;;;;;2.90;97.60;;;;;;5034278;28;20378;-52
2022/12/13 09:21:19;;;;;;;;;;;2.90;97.30;;;;;;5034594;28;19916;-50
2022/12/13 09:23:45;;;;;;;;;;;3.00;97.40;;;;;;5034514;28;19910;-50
2022/12/13 09:26:12;;;;;;;;;;;3.00;97.10;;;;;;5033222;28;19913;-49
2022/12/13 09:28:38;;;;;;;;;;;3.00;97.30;;;;;;5032919;28;20407;-49
2022/12/13 09:31:08;;;;;;;;;;;3.00;97.30;;;;;;5034238;28;20373;-49
2022/12/13 09:33:33;;;;;;;;;;;2.90;97.30;;;;;;5034188;28;19913;-49
2022/12/13 09:36:01;;;;;;;;;;;2.80;97.70;;;;;;5034327;28;20000;-49
2022/12/13 09:38:27;;;;;;;;;;;2.70;98.20;;;;;;5033971;28;20012;-50
2022/12/13 09:40:53;;;;;;;;;;;2.60;98.20;;;;;;5034286;28;20008;-50
2022/12/13 09:43:22;;;;;;;;;;;2.60;98.30;;;;;;5034278;28;19909;-49
2022/12/13 09:45:49;;;;;;;;;;;2.60;98.50;;;;;;5034024;28;19909;-49
2022/12/13 09:48:16;;;;;;;;;;;2.60;98.30;;;;;;5033529;28;20273;-49
2022/12/13 09:50:42;;;;;;;;;;;2.50;98.60;;;;;;5033937;28;20285;-50
2022/12/13 09:53:07;;;;;;;;;;;2.50;98.60;;;;;;5033923;28;19909;-51
2022/12/13 09:55:37;;;;;;;;;;;2.60;98.40;;;;;;5033961;28;19909;-49
2022/12/13 09:58:21;;;;;;;;;;;0.40;98.10;;;;;;5033825;28;19959;-49
2022/12/13 10:00:48;;;;;;;;;;;2.60;98.50;;;;;;5033828;28;19909;-49
2022/12/13 10:03:15;;;;;;;;;;;2.60;98.50;;;;;;5033777;28;19909;-50
2022/12/13 10:05:43;;;;;;;;;;;2.70;98.60;;;;;;5033728;28;19916;-49
2022/12/13 10:08:13;;;;;;;;;;;2.70;98.30;;;;;;5033498;28;19913;-49
2022/12/13 10:10:39;;;;;;;;;;;2.70;98.10;;;;;;5033661;28;19979;-49
2022/12/13 10:13:20;;;;;;;;;;;2.70;97.90;;;;;;5033964;28;20450;-49
2022/12/13 10:15:51;;;;;;;;;;;2.60;98.00;;;;;;5033724;28;20267;-51
2022/12/13 10:18:22;;;;;;;;;;;2.60;98.40;;;;;;5031961;28;19910;-50
2022/12/13 10:20:48;;;;;;;;;;;2.70;98.50;;;;;;5033535;28;20278;-49
2022/12/13 10:23:13;;;;;;;;;;;2.80;97.90;;;;;;5033332;28;19916;-49
2022/12/13 10:25:45;;;;;;;;;;;2.80;98.00;;;;;;5032037;28;20331;-50
2022/12/13 10:28:11;;;;;;;;;;;2.90;98.00;;;;;;5033023;28;19910;-49
2022/12/13 10:30:40;;;;;;;;;;;3.00;97.50;;;;;;5033265;28;19955;-50
2022/12/13 10:33:17;;;;;;;;;;;3.00;97.30;;;;;;5033312;28;19909;-49
2022/12/13 10:35:42;;;;;;;;;;;3.10;97.20;;;;;;5033029;28;20023;-50
2022/12/13 10:38:09;;;;;;;;;;;3.10;97.60;;;;;;5032763;28;20065;-50
2022/12/13 10:40:34;;;;;;;;;;;3.20;96.70;;;;;;5033053;28;20358;-50
2022/12/13 10:43:20;;;;;;;;;;;3.20;97.30;;;;;;5032992;28;19916;-50
2022/12/13 10:45:52;;;;;;;;;;;3.20;96.70;;;;;;5032633;28;19909;-50
2022/12/13 10:48:19;;;;;;;;;;;3.30;97.00;;;;;;5031238;28;19917;-50
2022/12/13 10:50:54;;;;;;;;;;;3.40;96.80;;;;;;5032703;28;19910;-50
2022/12/13 10:53:28;;;;;;;;;;;3.30;96.30;;;;;;5031572;28;20380;-50
2022/12/13 10:55:54;;;;;;;;;;;3.40;96.60;;;;;;5032849;28;19975;-49
2022/12/13 10:58:19;;;;;;;;;;;3.40;96.40;;;;;;5031423;28;20293;-50
2022/12/13 11:00:45;;;;;;;;;;;3.50;96.80;;;;;;5032079;28;19909;-50
2022/12/13 11:03:26;;;;;;;;;;;3.60;95.10;;;;;;5032559;28;19915;-50
2022/12/13 11:06:01;;;;;;;;;;;3.50;96.00;;;;;;5032682;28;19948;-53
2022/12/13 11:08:26;;;;;;;;;;;3.60;96.20;;;;;;5032458;28;19923;-49
2022/12/13 11:11:00;;;;;;;;;;;2.60;95.80;;;;;;5031315;28;19909;-50
2022/12/13 11:13:45;;;;;;;;;;;3.60;95.70;;;;;;5032324;28;20370;-50
2022/12/13 11:16:31;;;;;;;;;;;3.60;95.80;;;;;;5030102;28;20297;-49
2022/12/13 11:18:58;;;;;;;;;;;3.60;95.90;;;;;;5035705;28;19913;-51
2022/12/13 11:21:25;;;;;;;;;;;3.60;95.90;;;;;;5043471;28;19921;-51
2022/12/13 11:23:52;;;;;;;;;;;3.60;95.90;;;;;;5044719;28;20349;-52
2022/12/13 11:26:20;;;;;;;;;;;3.60;95.80;;;;;;5026733;28;19929;-49
2022/12/13 11:29:04;;;;;;;;;;;3.60;95.80;;;;;;5012322;28;20310;-49
2022/12/13 11:31:35;;;;;;;;;;;3.50;95.80;;;;;;5022812;28;19940;-49
2022/12/13 11:34:13;;;;;;;;;;;3.50;95.80;;;;;;5023587;28;19980;-51
2022/12/13 11:36:47;;;;;;;;;;;3.50;95.90;;;;;;5017154;28;19917;-49
2022/12/13 11:39:24;;;;;;;;;;;3.40;96.60;;;;;;5027407;28;19924;-50
2022/12/13 11:42:08;;;;;;;;;;;3.40;96.50;;;;;;5012886;28;19914;-50
2022/12/13 11:44:42;;;;;;;;;;;3.40;96.50;;;;;;5018242;28;20292;-50
2022/12/13 11:47:13;;;;;;;;;;;3.40;95.80;;;;;;5039137;28;19963;-52
2022/12/13 11:49:39;;;;;;;;;;;3.40;96.20;;;;;;5021565;28;19971;-50
2022/12/13 11:52:11;;;;;;;;;;;3.40;96.00;;;;;;5019750;28;19913;-50
2022/12/13 11:54:42;;;;;;;;;;;3.40;96.50;;;;;;5013291;28;19924;-49
2022/12/13 11:57:15;;;;;;;;;;;3.50;96.70;;;;;;5013353;28;20320;-50
2022/12/13 11:59:55;;;;;;;;;;;3.60;96.20;;;;;;5026396;28;19914;-49
2022/12/13 12:02:34;;;;;;;;;;;3.60;96.20;;;;;;5038047;28;20016;-50
2022/12/13 12:05:04;;;;;;;;;;;3.70;95.80;;;;;;5036742;28;20304;-52
2022/12/13 12:07:42;;;;;;;;;;;3.70;95.10;;;;;;5041514;28;19913;-50
2022/12/13 12:10:29;;;;;;;;;;;3.70;95.50;;;;;;5043177;28;19913;-52
2022/12/13 12:12:59;;;;;;;;;;;3.70;95.50;;;;;;5023299;28;20383;-49
2022/12/13 12:15:28;;;;;;;;;;;3.70;95.70;;;;;;5033327;28;20373;-49
2022/12/13 12:17:55;;;;;;;;;;;3.70;94.60;;;;;;5040638;28;20393;-52
2022/12/13 12:20:38;;;;;;;;;;;3.70;95.30;;;;;;5035175;28;20366;-51
2022/12/13 12:23:04;;;;;;;;;;;;;;;;;;5038473;28;20016;-50
2022/12/13 12:25:30;;;;;;;;;;;;;;;;;;5046576;28;20406;-49
2022/12/13 12:27:56;;;;;;;;;;;;;;;;;;5043269;28;20327;-51
2022/12/13 12:30:22;;;;;;;;;;;;;;;;;;5049577;28;19932;-49
2022/12/13 12:32:48;;;;;;;;;;;;;;;;;;5049333;28;19913;-49
2022/12/13 12:35:14;;;;;;;;;;;;;;;;;;5035552;28;19914;-50
2022/12/13 12:37:40;;;;;;;;;;;;;;;;;;5032787;28;19920;-49
2022/12/13 12:40:06;;;;;;;;;;;;;;;;;;5034392;28;20316;-52
2022/12/13 12:42:32;;;;;;;;;;;;;;;;;;5024764;28;19913;-52
2022/12/13 12:44:57;;;;;;;;;;;;;;;;;;5025479;28;19967;-50
2022/12/13 12:47:23;;;;;;;;;;;;;;;;;;5034843;28;20026;-50
2022/12/13 12:49:50;;;;;;;;;;;;;;;;;;5030708;28;19924;-53
2022/12/13 12:52:15;;;;;;;;;;;;;;;;;;5015446;28;20340;-50
2022/12/13 12:54:42;;;;;;;;;;;;;;;;;;5016416;28;19918;-52
2022/12/13 12:57:08;;;;;;;;;;;;;;;;;;5028918;28;19913;-52
2022/12/13 12:59:34;;;;;;;;;;;;;;;;;;5034487;28;19917;-50
2022/12/13 13:01:59;;;;;;;;;;;;;;;;;;5034909;28;19915;-51
2022/12/13 13:04:25;;;;;;;;;;;;;;;;;;5035179;28;19916;-54
2022/12/13 13:06:51;;;;;;;;;;;;;;;;;;5024006;28;20017;-49
2022/12/13 13:09:18;;;;;;;;;;;;;;;;;;5021007;28;19949;-51
2022/12/13 13:11:44;;;;;;;;;;;;;;;;;;5015088;28;19913;-53
2022/12/13 13:14:10;;;;;;;;;;;;;;;;;;5014865;28;19913;-50
2022/12/13 13:16:36;;;;;;;;;;;;;;;;;;5026279;28;19914;-50
2022/12/13 13:19:02;;;;;;;;;;;;;;;;;;5034253;28;19920;-50
2022/12/13 13:21:28;;;;;;;;;;;;;;;;;;5034668;28;19916;-50
2022/12/13 13:23:54;;;;;;;;;;;;;;;;;;5031066;28;19920;-50
2022/12/13 13:26:20;;;;;;;;;;;;;;;;;;5023664;28;19921;-51
2022/12/13 13:28:46;;;;;;;;;;;;;;;;;;5014427;28;19909;-52
2022/12/13 13:31:12;;;;;;;;;;;;;;;;;;5014693;28;19910;-53
2022/12/13 13:33:38;;;;;;;;;;;;;;;;;;5015903;28;19924;-50
2022/12/13 13:36:04;;;;;;;;;;;;;;;;;;5021286;28;20000;-52
2022/12/13 13:38:30;;;;;;;;;;;;;;;;;;5030841;28;19917;-53
2022/12/13 13:40:56;;;;;;;;;;;;;;;;;;5015131;28;19914;-50
2022/12/13 13:43:21;;;;;;;;;;;;;;;;;;5020648;28;19913;-49
2022/12/13 13:45:47;;;;;;;;;;;;;;;;;;5032537;28;19910;-52
2022/12/13 13:48:14;;;;;;;;;;;;;;;;;;5028123;28;20336;-53
2022/12/13 13:50:40;;;;;;;;;;;;;;;;;;5046138;28;20004;-52
2022/12/13 13:53:06;;;;;;;;;;;;;;;;;;5042132;28;20008;-51
2022/12/13 13:55:32;;;;;;;;;;;;;;;;;;5048057;28;19974;-50
2022/12/13 13:57:58;;;;;;;;;;;;;;;;;;5050341;28;20564;-50
2022/12/13 14:00:24;;;;;;;;;;;;;;;;;;5041271;28;20356;-50
2022/12/13 14:02:49;;;;;;;;;;;;;;;;;;5030492;28;19913;-51
2022/12/13 14:05:15;;;;;;;;;;;;;;;;;;5024214;28;19910;-50
2022/12/13 14:07:41;;;;;;;;;;;;;;;;;;5013886;28;19913;-50
2022/12/13 14:10:07;;;;;;;;;;;;;;;;;;5013912;28;19909;-50
2022/12/13 14:12:33;;;;;;;;;;;;;;;;;;5013894;28;19920;-49
2022/12/13 14:14:59;;;;;;;;;;;;;;;;;;5027374;28;19920;-51
2022/12/13 14:17:25;;;;;;;;;;;;;;;;;;5045054;28;19965;-50
2022/12/13 14:19:51;;;;;;;;;;;;;;;;;;5035816;28;19920;-50
2022/12/13 14:22:17;;;;;;;;;;;;;;;;;;5038125;28;20355;-49
2022/12/13 14:24:43;;;;;;;;;;;;;;;;;;5023166;28;19917;-50
2022/12/13 14:27:09;;;;;;;;;;;;;;;;;;5020188;28;19910;-50
2022/12/13 14:29:35;;;;;;;;;;;;;;;;;;5013638;28;19910;-49
2022/12/13 14:32:01;;;;;;;;;;;;;;;;;;5033098;28;20392;-49
2022/12/13 14:34:27;;;;;;;;;;;;;;;;;;5028966;28;19924;-52
2022/12/13 14:36:53;;;;;;;;;;;;;;;;;;5015313;28;20000;-49
2022/12/13 14:39:18;;;;;;;;;;;;;;;;;;5032934;28;19909;-50
2022/12/13 14:41:45;;;;;;;;;;;;;;;;;;5031970;28;19917;-51
2022/12/13 14:44:10;;;;;;;;;;;;;;;;;;5031376;28;19917;-49
2022/12/13 14:46:36;;;;;;;;;;;;;;;;;;5025456;28;19983;-50
2022/12/13 14:49:02;;;;;;;;;;;;;;;;;;5016023;28;20446;-49
2022/12/13 14:51:28;;;;;;;;;;;;;;;;;;5023449;28;19959;-49
2022/12/13 14:53:54;;;;;;;;;;;;;;;;;;5014971;28;19963;-50
2022/12/13 14:56:20;;;;;;;;;;;;;;;;;;5012113;28;19968;-52
2022/12/13 14:58:46;;;;;;;;;;;;;;;;;;5012774;28;20056;-48
2022/12/13 15:01:12;;;;;;;;;;;;;;;;;;5015109;28;19953;-49
2022/12/13 15:03:38;;;;;;;;;;;;;;;;;;5039311;28;20007;-48
2022/12/13 15:06:04;;;;;;;;;;;;;;;;;;5043236;28;20047;-49
2022/12/13 15:08:30;;;;;;;;;;;;;;;;;;5037591;28;19944;-50
2022/12/13 15:10:56;;;;;;;;;;;;;;;;;;5032511;28;19909;-48
2022/12/13 15:13:22;;;;;;;;;;;;;;;;;;5032500;28;19915;-50
2022/12/13 15:15:48;;;;;;;;;;;;;;;;;;5032513;28;19909;-50
2022/12/13 15:18:14;;;;;;;;;;;;;;;;;;5031218;28;20011;-50
2022/12/13 15:20:40;;;;;;;;;;;;;;;;;;5032520;28;19916;-50
2022/12/13 15:23:05;;;;;;;;;;;;;;;;;;5032415;28;19917;-49
2022/12/13 15:25:31;;;;;;;;;;;;;;;;;;5031098;28;20005;-48